17TE weather

Comfort Airpark
Comfort, Texas, United States

Public forecast

Using degrees Fahrenheit for public forecast. Weather courtesy of forecast.io.

METAR (pilot weather report)

Closest report is Kerrville Municipal Louis Schreiner Field, 8.1 nm (15.0 km) WNW. Retrieved 2019/07/24 05:35 UTC (3 minutes ago):

KERV 240535Z AUTO 04005KT 10SM SCT075 25/13 A3013 RMK AO2 T02470132

TAF (pilot weather forecast)

Forecast is more than 12 hours old.

Closest forecast is San Antonio International Airport, 34.1 nm (63.2 km) SE. Retrieved 2019/07/23 00:30 UTC (1 day ago):

TAF KSAT 232329Z 2400/2506 04011KT P6SM FEW080 FEW250 FM240200 02006KT P6SM FEW060 FM241400 04011KT P6SM FEW060 FM250100 06005KT P6SM SKC